ARG1672 SAZM-SAEZ
Flight info
| Callsign | ARG1672 |
|---|---|
| Flight time | N/A |
| Altitude | 29000 |
| Route | PULPA1D PULPA UW31 TENIL TENIL7A |
| Aircraft | B738/M-SDE2E3FGHIRWXY/LB1 |
Departure
| Time | 2026-04-21 15:28 |
|---|---|
| Airport | Ástor Piazzola International Airport (SAZM) |
Arrival
| Time | N/A |
|---|---|
| Airport | Ezeiza International Airport - Ministro Pistarini (SAEZ) |
| Time | Latitude | Longitude | Altitude | Speed | Heading |
|---|---|---|---|---|---|
| 2026-04-21 15:05 | -37.93454 | -57.57990 | 53 ft | 0 kts | 298° |
| 2026-04-21 15:24 | -37.93454 | -57.57992 | 53 ft | 1 kts | 298° |
| 2026-04-21 15:25 | -37.93440 | -57.58025 | 50 ft | 7 kts | 301° |
| 2026-04-21 15:25 | -37.93389 | -57.58035 | 53 ft | 10 kts | 11° |
| 2026-04-21 15:25 | -37.93303 | -57.58024 | 53 ft | 14 kts | 351° |
| 2026-04-21 15:25 | -37.93215 | -57.58027 | 53 ft | 13 kts | 31° |
| 2026-04-21 15:26 | -37.93141 | -57.57971 | 53 ft | 12 kts | 17° |
| 2026-04-21 15:26 | -37.93067 | -57.58022 | 53 ft | 17 kts | 299° |
| 2026-04-21 15:26 | -37.92994 | -57.58167 | 52 ft | 20 kts | 303° |
| 2026-04-21 15:26 | -37.92934 | -57.58299 | 49 ft | 10 kts | 270° |
| 2026-04-21 15:27 | -37.92924 | -57.58372 | 51 ft | 5 kts | 317° |
| 2026-04-21 15:27 | -37.92898 | -57.58351 | 48 ft | 5 kts | 90° |
| 2026-04-21 15:27 | -37.92909 | -57.58332 | 50 ft | 0 kts | 122° |
| 2026-04-21 15:28 | -37.92980 | -57.58193 | 51 ft | 54 kts | 123° |
| 2026-04-21 15:28 | -37.93321 | -57.57520 | 49 ft | 124 kts | 122° |
| 2026-04-21 15:28 | -37.93853 | -57.56452 | 312 ft | 161 kts | 122° |
| 2026-04-21 15:28 | -37.94496 | -57.55218 | 1182 ft | 173 kts | 120° |
| 2026-04-21 15:29 | -37.95128 | -57.53922 | 2232 ft | 173 kts | 114° |
| 2026-04-21 15:29 | -37.95399 | -57.52349 | 2650 ft | 199 kts | 82° |
| 2026-04-21 15:29 | -37.94764 | -57.50709 | 3031 ft | 219 kts | 50° |
| 2026-04-21 15:29 | -37.93662 | -57.49279 | 3512 ft | 238 kts | 47° |
| 2026-04-21 15:30 | -37.92498 | -57.47704 | 4198 ft | 246 kts | 49° |
| 2026-04-21 15:30 | -37.91349 | -57.46052 | 5034 ft | 249 kts | 48° |
| 2026-04-21 15:30 | -37.90229 | -57.44352 | 5740 ft | 258 kts | 50° |
| 2026-04-21 15:30 | -37.89080 | -57.42537 | 6424 ft | 268 kts | 50° |
| 2026-04-21 15:31 | -37.87938 | -57.40674 | 7231 ft | 268 kts | 51° |
| 2026-04-21 15:31 | -37.86803 | -57.38797 | 7920 ft | 275 kts | 51° |
| 2026-04-21 15:31 | -37.85637 | -57.36853 | 8692 ft | 278 kts | 51° |
| 2026-04-21 15:31 | -37.84461 | -57.34876 | 9473 ft | 282 kts | 51° |
| 2026-04-21 15:32 | -37.83280 | -57.32877 | 10266 ft | 286 kts | 51° |
| 2026-04-21 15:32 | -37.82081 | -57.30838 | 10672 ft | 303 kts | 51° |
| 2026-04-21 15:32 | -37.80768 | -57.28605 | 10847 ft | 328 kts | 51° |
| 2026-04-21 15:32 | -37.79354 | -57.26199 | 11004 ft | 351 kts | 51° |
| 2026-04-21 15:33 | -37.77623 | -57.23911 | 11189 ft | 368 kts | 32° |
| 2026-04-21 15:33 | -37.75284 | -57.22620 | 11869 ft | 367 kts | 11° |
| 2026-04-21 15:33 | -37.72776 | -57.22456 | 12640 ft | 366 kts | 351° |
| 2026-04-21 15:33 | -37.70272 | -57.23111 | 13432 ft | 367 kts | 346° |
| 2026-04-21 15:34 | -37.68615 | -57.23616 | 13865 ft | 371 kts | 345° |
| 2026-04-21 15:34 | -37.66090 | -57.24412 | 14378 ft | 377 kts | 345° |
| 2026-04-21 15:34 | -37.62684 | -57.25473 | 15107 ft | 381 kts | 345° |
| 2026-04-21 15:34 | -37.60936 | -57.26006 | 15516 ft | 383 kts | 345° |
| 2026-04-21 15:35 | -37.58352 | -57.26782 | 16041 ft | 388 kts | 345° |
| 2026-04-21 15:35 | -37.55700 | -57.27568 | 16624 ft | 391 kts | 345° |
| 2026-04-21 15:35 | -37.53036 | -57.28352 | 17222 ft | 393 kts | 345° |
| 2026-04-21 15:35 | -37.50389 | -57.29130 | 17806 ft | 395 kts | 345° |
| 2026-04-21 15:36 | -37.47702 | -57.29919 | 18373 ft | 397 kts | 344° |
| 2026-04-21 15:36 | -37.45004 | -57.30710 | 18885 ft | 399 kts | 344° |
| 2026-04-21 15:36 | -37.42362 | -57.31772 | 19363 ft | 398 kts | 332° |
| 2026-04-21 15:36 | -37.40028 | -57.33642 | 19915 ft | 396 kts | 323° |
| 2026-04-21 15:37 | -37.37796 | -57.35628 | 20420 ft | 398 kts | 324° |
| 2026-04-21 15:37 | -37.35512 | -57.37620 | 20889 ft | 401 kts | 324° |
| 2026-04-21 15:37 | -37.33197 | -57.39601 | 21356 ft | 403 kts | 324° |
| 2026-04-21 15:37 | -37.30864 | -57.41583 | 21846 ft | 404 kts | 325° |
| 2026-04-21 15:38 | -37.28522 | -57.43568 | 22291 ft | 407 kts | 325° |
| 2026-04-21 15:38 | -37.26163 | -57.45568 | 22700 ft | 409 kts | 325° |
| 2026-04-21 15:38 | -37.23793 | -57.47576 | 23107 ft | 411 kts | 325° |
| 2026-04-21 15:38 | -37.21446 | -57.49564 | 23503 ft | 413 kts | 325° |
| 2026-04-21 15:39 | -37.19056 | -57.51589 | 23859 ft | 416 kts | 325° |
| 2026-04-21 15:39 | -37.16653 | -57.53623 | 24193 ft | 417 kts | 325° |
| 2026-04-21 15:39 | -37.14242 | -57.55663 | 24547 ft | 418 kts | 325° |
| 2026-04-21 15:39 | -37.11825 | -57.57705 | 24885 ft | 419 kts | 325° |
| 2026-04-21 15:40 | -37.09404 | -57.59751 | 25216 ft | 421 kts | 325° |
| 2026-04-21 15:40 | -37.06967 | -57.61807 | 25550 ft | 422 kts | 324° |
| 2026-04-21 15:40 | -37.04529 | -57.63864 | 25872 ft | 423 kts | 324° |
| 2026-04-21 15:40 | -37.02079 | -57.65927 | 26189 ft | 425 kts | 325° |
| 2026-04-21 15:41 | -36.99462 | -57.67669 | 26468 ft | 430 kts | 337° |
| 2026-04-21 15:41 | -36.96537 | -57.68563 | 26776 ft | 436 kts | 349° |
| 2026-04-21 15:41 | -36.93509 | -57.68923 | 27191 ft | 436 kts | 351° |
| 2026-04-21 15:41 | -36.90494 | -57.69211 | 27635 ft | 434 kts | 352° |
| 2026-04-21 15:42 | -36.87487 | -57.69481 | 28065 ft | 432 kts | 351° |
| 2026-04-21 15:42 | -36.84493 | -57.69758 | 28463 ft | 432 kts | 351° |
| 2026-04-21 15:42 | -36.81536 | -57.70044 | 28823 ft | 431 kts | 351° |
| 2026-04-21 15:42 | -36.78526 | -57.70348 | 29122 ft | 431 kts | 351° |
| 2026-04-21 15:43 | -36.72527 | -57.70977 | 29095 ft | 432 kts | 351° |
| 2026-04-21 15:43 | -36.66551 | -57.71612 | 29102 ft | 430 kts | 351° |
| 2026-04-21 15:44 | -36.60642 | -57.72241 | 29100 ft | 428 kts | 351° |